Time;durP1;ratioP1;P1;durP2;ratioP2;P2;SDS_P1;SDS_P2;PMS_P1;PMS_P2;Temp;Humidity;BMP_temperature;BMP_pressure;BME280_temperature;BME280_humidity;BME280_pressure;Samples;Min_cycle;Max_cycle;Signal;HPM_P1;HPM_P2
2022/07/03 00:02:01;;;;;;;5.33;4.83;;;;;;;14.73;59.45;101591.94;1716573;81;25032;-82
2022/07/03 00:04:28;;;;;;;4.90;4.05;;;;;;;14.72;59.56;101592.82;1716648;83;21814;-82
2022/07/03 00:06:54;;;;;;;5.57;4.07;;;;;;;14.73;59.61;101595.84;1728514;82;21051;-82
2022/07/03 00:09:21;;;;;;;5.53;4.40;;;;;;;14.72;59.67;101592.82;1710214;82;21501;-81
2022/07/03 00:11:47;;;;;;;7.97;4.62;;;;;;;14.70;59.65;101586.34;1733512;81;21100;-81
2022/07/03 00:14:15;;;;;;;5.90;4.53;;;;;;;14.67;59.73;101590.30;1688859;82;21106;-81
2022/07/03 00:16:41;;;;;;;5.63;3.90;;;;;;;14.61;59.80;101590.41;1693639;83;21075;-81
2022/07/03 00:19:07;;;;;;;7.17;4.92;;;;;;;14.59;59.90;101592.17;1685485;83;21055;-81
2022/07/03 00:21:54;;;;;;;6.87;4.08;;;;;;;14.53;59.91;101590.56;1707587;83;21448;-82
2022/07/03 00:24:28;;;;;;;4.20;3.10;;;;;;;14.48;59.91;101588.47;1714391;83;21586;-82
2022/07/03 00:26:58;;;;;;;3.90;3.40;;;;;;;14.39;59.96;101592.49;1702666;83;21455;-82
2022/07/03 00:29:30;;;;;;;7.37;3.87;;;;;;;14.35;60.09;101593.42;1682753;83;21039;-82
2022/07/03 00:31:56;;;;;;;5.65;4.12;;;;;;;14.35;60.14;101584.31;1694934;82;21438;-82
2022/07/03 00:34:26;;;;;;;5.40;3.30;;;;;;;14.35;60.25;101587.36;1712487;83;20992;-82
2022/07/03 00:36:53;;;;;;;;;;;;;;;14.39;60.29;101584.69;1706439;83;21003;-82
2022/07/03 00:39:19;;;;;;;5.70;3.77;;;;;;;14.38;60.68;101577.77;1641998;86;20213;-82
2022/07/03 00:41:46;;;;;;;5.42;3.75;;;;;;;14.38;60.33;101578.20;1712004;80;21812;-82
2022/07/03 00:44:13;;;;;;;5.17;3.80;;;;;;;14.30;60.33;101576.17;1727176;83;21447;-82
2022/07/03 00:46:41;;;;;;;5.42;4.12;;;;;;;14.19;60.44;101581.09;1735047;81;21542;-82
2022/07/03 00:49:16;;;;;;;4.15;3.70;;;;;;;14.18;60.55;101578.52;1707359;82;21447;-82
2022/07/03 00:51:43;;;;;;;4.42;4.00;;;;;;;14.22;60.66;101580.19;1703511;84;20995;-82
2022/07/03 00:54:10;;;;;;;;;;;;;;;14.25;60.65;101582.30;1717279;82;21428;-82
2022/07/03 00:56:40;;;;;;;6.15;4.40;;;;;;;14.26;61.09;101584.46;1720927;82;20141;-82
2022/07/03 00:59:06;;;;;;;6.25;4.33;;;;;;;14.23;60.66;101581.47;1714464;82;21082;-82
2022/07/03 01:01:36;;;;;;;5.00;4.05;;;;;;;14.20;60.68;101578.91;1728590;81;22202;-82
2022/07/03 01:04:47;;;;;;;3.52;3.22;;;;;;;14.16;60.75;101578.54;1724171;82;21066;-82
2022/07/03 01:07:48;;;;;;;4.50;3.33;;;;;;;14.12;60.81;101582.07;1705132;81;21565;-82
2022/07/03 01:10:49;;;;;;;5.08;3.33;;;;;;;14.08;60.93;101572.59;1731158;82;21468;-82
2022/07/03 01:13:29;;;;;;;5.55;3.35;;;;;;;14.07;60.96;101570.88;1706968;82;21130;-82
2022/07/03 01:16:16;;;;;;;4.25;3.85;;;;;;;14.07;61.05;101578.67;1720084;82;21461;-82
2022/07/03 01:18:46;;;;;;;;;;;;;;;14.06;61.08;101576.96;1707246;82;21365;-82
2022/07/03 01:21:38;;;;;;;3.40;3.10;;;;;;;14.03;61.55;101580.08;1703876;84;20450;-82
2022/07/03 01:24:45;;;;;;;4.47;3.05;;;;;;;14.01;61.21;101575.34;1707262;82;21369;-82
2022/07/03 01:27:13;;;;;;;;;;;;;;;13.97;61.26;101568.03;1723778;82;21396;-82
2022/07/03 01:29:52;;;;;;;3.55;3.22;;;;;;;13.93;61.75;101565.05;1721934;81;20434;-82
2022/07/03 01:32:22;;;;;;;5.83;3.40;;;;;;;13.86;61.33;101564.72;1704579;84;21380;-82
2022/07/03 01:34:53;;;;;;;4.42;3.25;;;;;;;13.89;61.44;101565.97;1704929;82;21365;-82
2022/07/03 01:37:22;;;;;;;3.70;3.40;;;;;;;13.91;61.43;101557.27;1706945;82;21602;-82
2022/07/03 01:39:52;;;;;;;4.35;3.50;;;;;;;13.86;61.41;101553.88;1704549;84;21424;-82
2022/07/03 01:42:19;;;;;;;6.87;3.20;;;;;;;13.82;61.47;101555.24;1731159;81;21459;-82
2022/07/03 01:44:49;;;;;;;4.08;2.87;;;;;;;13.75;61.55;101553.61;1699552;83;21496;-82
2022/07/03 01:47:35;;;;;;;4.28;3.05;;;;;;;13.75;61.64;101550.57;1687514;83;20909;-82
2022/07/03 01:50:02;;;;;;;3.85;2.92;;;;;;;13.75;61.69;101549.27;1708501;83;21441;-82
2022/07/03 01:52:31;;;;;;;4.40;3.10;;;;;;;13.73;61.67;101550.17;1715661;82;26986;-82
2022/07/03 01:55:01;;;;;;;4.33;2.50;;;;;;;13.68;61.76;101548.94;1727780;82;20912;-82
2022/07/03 01:57:49;;;;;;;6.75;2.92;;;;;;;13.70;61.78;101547.61;1724043;81;21544;-82
2022/07/03 02:00:20;;;;;;;3.05;2.80;;;;;;;13.70;61.82;101547.61;1714792;83;21444;-81
2022/07/03 02:03:05;;;;;;;3.30;3.00;;;;;;;13.67;61.84;101531.63;1713017;82;21092;-81
2022/07/03 02:05:45;;;;;;;4.08;2.95;;;;;;;13.67;61.95;101533.36;1690815;83;21591;-81
2022/07/03 02:08:39;;;;;;;3.20;2.90;;;;;;;13.68;62.00;101525.98;1688431;82;317234;-81
2022/07/03 02:11:15;;;;;;;3.05;2.85;;;;;;;13.70;62.01;101528.13;1713585;82;20996;-81
2022/07/03 02:13:57;;;;;;;;;;;;;;;13.71;62.01;101538.50;1699758;83;21544;-81
2022/07/03 02:16:26;;;;;;;3.60;2.87;;;;;;;13.68;62.38;101541.14;1694184;83;20510;-81
2022/07/03 02:19:07;;;;;;;4.28;3.00;;;;;;;13.63;62.07;101544.23;1704538;83;21052;-81
2022/07/03 02:21:34;;;;;;;3.85;2.67;;;;;;;13.59;62.12;101536.92;1688661;83;21560;-81
2022/07/03 02:24:09;;;;;;;;;;;;;;;13.55;62.13;101539.14;1719271;83;21524;-81
2022/07/03 02:26:42;;;;;;;3.22;2.70;;;;;;;13.47;62.48;101533.66;1692759;83;20211;-81
2022/07/03 02:29:18;;;;;;;3.22;2.90;;;;;;;13.44;62.24;101527.20;1688311;84;21015;-82
2022/07/03 02:31:48;;;;;;;3.45;2.60;;;;;;;13.42;62.27;101526.37;1698275;83;21016;-82
2022/07/03 02:34:23;;;;;;;3.27;2.50;;;;;;;13.41;62.30;101531.14;1705722;83;21485;-82
2022/07/03 02:36:54;;;;;;;4.55;2.27;;;;;;;13.42;62.32;101535.46;1716709;83;20965;-82
2022/07/03 02:39:31;;;;;;;2.22;2.00;;;;;;;13.34;62.24;101541.19;1716372;83;21068;-82
2022/07/03 02:42:02;;;;;;;2.87;2.30;;;;;;;13.23;62.30;101541.32;1720162;82;21071;-82
2022/07/03 02:44:47;;;;;;;3.67;2.12;;;;;;;13.13;62.38;101542.27;1692212;83;21000;-82
2022/07/03 02:48:04;;;;;;;2.90;2.70;;;;;;;13.09;62.48;101538.85;1670292;84;20980;-82
2022/07/03 02:50:36;;;;;;;3.65;2.85;;;;;;;13.10;62.59;101538.41;1715725;83;21412;-82
2022/07/03 02:53:06;;;;;;;2.80;2.60;;;;;;;13.12;62.64;101542.71;1715854;83;21602;-82
2022/07/03 02:55:45;;;;;;;3.92;2.42;;;;;;;13.18;62.63;101545.70;1739912;81;21011;-82
2022/07/03 02:58:39;;;;;;;5.40;2.70;;;;;;;13.11;62.57;101537.09;1721153;82;21071;-82
2022/07/03 03:01:09;;;;;;;4.80;3.25;;;;;;;13.06;62.67;101539.32;1745272;82;20944;-81
2022/07/03 03:03:39;;;;;;;3.22;2.92;;;;;;;12.96;62.78;101537.30;1745328;82;21023;-81
2022/07/03 03:06:10;;;;;;;7.08;3.22;;;;;;;12.94;62.89;101532.56;1733040;81;21034;-81
2022/07/03 03:08:53;;;;;;;4.50;2.77;;;;;;;12.93;62.99;101540.79;1714228;82;21628;-81
2022/07/03 03:11:42;;;;;;;3.10;2.80;;;;;;;12.98;63.02;101534.25;1735813;80;20897;-82
2022/07/03 03:14:21;;;;;;;3.25;2.33;;;;;;;12.99;63.00;101542.45;1746264;81;20897;-82
2022/07/03 03:16:53;;;;;;;3.30;3.00;;;;;;;12.93;62.97;101537.33;1745399;81;20901;-82
2022/07/03 03:19:22;;;;;;;3.25;3.00;;;;;;;12.93;63.12;101538.19;1739738;81;21186;-82
2022/07/03 03:22:00;;;;;;;3.40;3.10;;;;;;;12.99;63.17;101532.52;1743086;80;20909;-82
2022/07/03 03:24:34;;;;;;;2.60;2.40;;;;;;;13.04;63.23;101534.59;1742424;82;20916;-82
2022/07/03 03:27:01;;;;;;;5.67;3.30;;;;;;;13.08;63.25;101528.05;1747148;81;20885;-82
2022/07/03 03:29:28;;;;;;;3.33;3.02;;;;;;;13.12;63.33;101529.73;1736687;81;20884;-82
2022/07/03 03:31:54;;;;;;;3.05;2.75;;;;;;;13.17;63.40;101529.27;1720961;81;20892;-82
2022/07/03 03:34:22;;;;;;;3.10;2.80;;;;;;;13.22;63.41;101533.11;1731129;82;21018;-82
2022/07/03 03:36:48;;;;;;;3.25;2.70;;;;;;;13.22;63.46;101531.38;1723345;81;20936;-82
2022/07/03 03:39:14;;;;;;;2.97;2.67;;;;;;;13.23;63.52;101532.23;1717426;82;20868;-82
2022/07/03 03:41:40;;;;;;;3.67;2.83;;;;;;;13.25;63.60;101528.73;1729107;80;21014;-82
2022/07/03 03:44:07;;;;;;;3.30;3.00;;;;;;;13.29;63.63;101534.75;1719148;82;21024;-82
2022/07/03 03:46:33;;;;;;;4.73;2.90;;;;;;;13.35;63.71;101529.92;1698667;83;21186;-83
2022/07/03 03:49:00;;;;;;;2.87;2.63;;;;;;;13.38;63.74;101526.84;1715863;82;21031;-82
2022/07/03 03:51:28;;;;;;;4.40;3.20;;;;;;;13.39;63.69;101525.11;1688241;83;21029;-82
2022/07/03 03:53:54;;;;;;;5.47;2.90;;;;;;;13.35;63.75;101531.22;1711824;82;21056;-82
2022/07/03 03:56:20;;;;;;;4.53;2.97;;;;;;;13.36;63.85;101530.34;1707163;82;21071;-82
2022/07/03 03:59:02;;;;;;;3.40;3.10;;;;;;;13.37;63.95;101535.95;1698570;83;20991;-82
2022/07/03 04:01:28;;;;;;;3.30;3.00;;;;;;;13.44;64.00;101532.41;1704221;82;21028;-82
2022/07/03 04:03:54;;;;;;;5.60;3.22;;;;;;;13.48;64.09;101528.88;1709467;82;21421;-82
2022/07/03 04:06:21;;;;;;;3.53;3.07;;;;;;;13.52;64.10;101535.73;1715447;82;21973;-82
2022/07/03 04:08:47;;;;;;;3.90;3.47;;;;;;;13.58;64.21;101528.71;1697999;83;24223;-82
2022/07/03 04:11:13;;;;;;;8.28;4.87;;;;;;;13.64;64.27;101526.91;1711640;81;21030;-82
2022/07/03 04:13:39;;;;;;;6.07;4.60;;;;;;;13.80;64.49;101524.07;1713966;82;21033;-83
2022/07/03 04:16:05;;;;;;;6.93;3.73;;;;;;;14.12;64.67;101519.65;1707352;82;21068;-82
2022/07/03 04:18:34;;;;;;;5.58;3.98;;;;;;;14.44;64.62;101520.89;1710256;83;21040;-82
2022/07/03 04:21:01;;;;;;;4.90;4.22;;;;;;;14.68;64.56;101519.56;1713950;82;21052;-82
2022/07/03 04:23:27;;;;;;;4.28;3.98;;;;;;;14.82;64.55;101518.87;1721972;82;21528;-82
2022/07/03 04:25:58;;;;;;;10.82;5.30;;;;;;;14.89;64.57;101517.86;1697686;83;21122;-82
2022/07/03 04:28:24;;;;;;;7.40;5.12;;;;;;;15.02;64.63;101514.58;1704983;83;20961;-82
2022/07/03 04:30:50;;;;;;;5.08;4.28;;;;;;;15.16;64.70;101509.47;1714366;82;21045;-82
2022/07/03 04:33:16;;;;;;;7.00;5.47;;;;;;;15.33;64.76;101514.34;1722398;83;21298;-82
2022/07/03 04:35:42;;;;;;;7.07;5.90;;;;;;;15.47;64.71;101517.95;1717488;82;21063;-82
2022/07/03 04:38:08;;;;;;;7.08;5.08;;;;;;;15.57;64.75;101508.22;1713254;83;21500;-82
2022/07/03 04:40:34;;;;;;;6.67;5.33;;;;;;;15.65;64.79;101514.09;1712045;83;21087;-82
2022/07/03 04:43:00;;;;;;;9.87;6.60;;;;;;;15.71;64.86;101506.98;1756336;81;21030;-82
2022/07/03 04:45:26;;;;;;;6.40;5.80;;;;;;;15.81;64.93;101507.19;1756470;81;20972;-82
2022/07/03 04:47:52;;;;;;;7.90;5.60;;;;;;;15.92;64.98;101500.41;1710308;81;21003;-82
2022/07/03 04:50:19;;;;;;;7.03;5.87;;;;;;;16.03;65.11;101501.45;1745597;81;21369;-82
2022/07/03 04:52:45;;;;;;;6.37;5.33;;;;;;;16.18;65.17;101501.91;1708685;81;21047;-82
2022/07/03 04:55:12;;;;;;;5.73;5.20;;;;;;;16.35;65.19;101503.23;1726058;81;21522;-82
2022/07/03 04:57:38;;;;;;;6.22;5.55;;;;;;;16.48;65.21;101498.11;1725195;81;20961;-82
2022/07/03 05:00:06;;;;;;;6.33;5.73;;;;;;;16.65;65.28;101502.44;1730974;81;21082;-82
2022/07/03 05:02:32;;;;;;;6.35;5.35;;;;;;;16.85;65.33;101506.67;1725182;81;21471;-82
2022/07/03 05:04:58;;;;;;;6.20;5.60;;;;;;;17.11;65.45;101506.39;1718449;81;21043;-82
2022/07/03 05:07:24;;;;;;;6.10;5.33;;;;;;;17.42;65.60;101503.26;1724734;81;21083;-83
2022/07/03 05:09:50;;;;;;;6.50;5.43;;;;;;;17.93;65.66;101493.84;1725341;81;21352;-83
2022/07/03 05:12:17;;;;;;;8.00;4.83;;;;;;;18.49;65.59;101499.78;1745635;81;21734;-83
2022/07/03 05:14:44;;;;;;;7.53;5.03;;;;;;;19.09;65.48;101501.12;1726899;81;20964;-84
2022/07/03 05:17:10;;;;;;;6.60;4.70;;;;;;;19.69;65.38;101499.69;1736306;81;21044;-84
2022/07/03 05:19:38;;;;;;;5.35;4.12;;;;;;;20.25;65.20;101493.41;1734914;81;21016;-84
2022/07/03 05:22:05;;;;;;;6.25;3.87;;;;;;;20.81;65.11;101494.87;1723952;81;25416;-84
2022/07/03 05:24:31;;;;;;;5.37;4.07;;;;;;;21.33;64.85;101499.55;1722808;81;21131;-84
2022/07/03 05:26:57;;;;;;;7.05;3.67;;;;;;;21.85;64.73;101499.67;1722180;81;21690;-84
2022/07/03 05:29:23;;;;;;;6.23;4.10;;;;;;;22.26;64.62;101494.55;1720830;81;21094;-84
2022/07/03 05:31:49;;;;;;;8.20;4.08;;;;;;;22.68;64.31;101492.78;1729390;81;21062;-84
2022/07/03 05:34:15;;;;;;;7.37;4.83;;;;;;;23.05;64.23;101500.92;1728804;81;21100;-84
2022/07/03 05:36:41;;;;;;;6.77;4.30;;;;;;;23.46;64.23;101507.02;1734208;81;21238;-84
2022/07/03 05:41:52;;;;;;;5.87;3.50;;;;;;;24.33;63.99;101498.08;1729992;81;21049;-84
2022/07/03 05:44:20;;;;;;;6.67;3.52;;;;;;;24.87;63.80;101506.24;1698683;83;21096;-84
2022/07/03 05:46:46;;;;;;;4.43;3.17;;;;;;;25.27;63.44;101506.79;1711446;82;20917;-83
2022/07/03 05:49:12;;;;;;;3.75;2.90;;;;;;;25.59;63.16;101500.73;1712042;83;21507;-84
2022/07/03 05:51:39;;;;;;;6.90;3.27;;;;;;;26.00;63.12;101505.13;1650920;85;21488;-84
2022/07/03 05:54:05;;;;;;;3.12;2.20;;;;;;;26.32;62.66;101497.22;1655163;84;21083;-84
2022/07/03 05:56:31;;;;;;;4.45;2.00;;;;;;;26.68;62.66;101507.56;1672903;85;21051;-84
2022/07/03 05:58:57;;;;;;;3.20;1.95;;;;;;;27.02;62.20;101511.39;1667844;84;21290;-84
2022/07/03 06:01:23;;;;;;;4.00;2.15;;;;;;;27.24;61.87;101512.86;1673025;84;21377;-84
2022/07/03 06:03:50;;;;;;;2.77;1.85;;;;;;;27.62;61.83;101516.73;1669289;84;21100;-84
2022/07/03 06:06:17;;;;;;;4.65;2.00;;;;;;;27.97;61.50;101523.92;1712688;82;21069;-84
2022/07/03 06:08:43;;;;;;;4.47;1.83;;;;;;;28.28;61.01;101518.47;1699892;82;20886;-84
2022/07/03 06:11:09;;;;;;;3.42;1.70;;;;;;;28.55;60.70;101520.84;1706604;82;21238;-84
2022/07/03 06:13:35;;;;;;;3.85;1.50;;;;;;;28.80;60.31;101525.92;1713355;82;21151;-85
2022/07/03 06:16:01;;;;;;;2.42;1.62;;;;;;;29.00;59.98;101519.06;1713807;82;21105;-85
2022/07/03 06:18:27;;;;;;;3.83;1.70;;;;;;;29.17;59.62;101520.36;1714684;82;21065;-84
2022/07/03 06:20:53;;;;;;;;;;;;;;;29.43;59.48;101513.81;1711229;82;21080;-85
2022/07/03 06:23:19;;;;;;;1.67;1.32;;;;;;;29.69;58.57;101512.99;1709432;83;20242;-83
2022/07/03 06:25:45;;;;;;;6.13;2.27;;;;;;;29.89;58.76;101507.34;1710598;82;20914;-83
2022/07/03 06:28:11;;;;;;;2.47;1.32;;;;;;;30.08;58.42;101508.88;1717739;82;21275;-82
2022/07/03 06:30:37;;;;;;;2.58;1.32;;;;;;;30.19;57.70;101503.45;1697753;82;21083;-83
2022/07/03 06:33:04;;;;;;;2.00;1.40;;;;;;;30.29;57.24;101501.69;1701749;82;21100;-85
2022/07/03 06:35:30;;;;;;;4.00;1.30;;;;;;;30.33;56.77;101496.94;1711855;83;21060;-85
2022/07/03 06:38:00;;;;;;;2.12;1.20;;;;;;;30.54;56.15;101494.26;1702131;83;21155;-85
2022/07/03 06:40:26;;;;;;;1.55;1.20;;;;;;;30.70;55.36;101495.95;1709881;83;21107;-84
2022/07/03 06:42:52;;;;;;;3.20;1.37;;;;;;;30.67;55.04;101496.26;1725958;82;21008;-85
2022/07/03 06:45:18;;;;;;;5.25;1.15;;;;;;;30.94;54.98;101492.48;1716924;82;21122;-85
2022/07/03 06:47:51;;;;;;;1.35;0.90;;;;;;;31.21;54.38;101485.19;1717394;81;21110;-84
2022/07/03 06:50:17;;;;;;;2.52;0.98;;;;;;;31.43;54.11;101485.45;1717794;81;21036;-84
2022/07/03 06:52:44;;;;;;;1.65;0.80;;;;;;;31.71;53.38;101482.98;1672218;84;21131;-84
2022/07/03 06:55:10;;;;;;;2.10;1.07;;;;;;;31.60;52.84;101487.44;1732003;81;26762;-84
2022/07/03 06:57:36;;;;;;;6.20;1.30;;;;;;;31.76;52.76;101487.37;1723156;81;21036;-84
2022/07/03 07:00:04;;;;;;;2.47;1.60;;;;;;;31.89;51.82;101476.75;1743603;80;21000;-85
2022/07/03 07:02:32;;;;;;;2.25;1.10;;;;;;;31.82;51.31;101480.97;1739007;80;21008;-85
2022/07/03 07:04:58;;;;;;;8.93;1.87;;;;;;;31.95;50.86;101475.83;1739236;81;21090;-83
2022/07/03 07:07:24;;;;;;;4.37;1.40;;;;;;;32.16;50.69;101480.53;1732853;81;21106;-82
2022/07/03 07:09:51;;;;;;;2.17;1.15;;;;;;;32.27;50.04;101472.83;1734802;81;21057;-84
2022/07/03 07:12:17;;;;;;;;;;;;;;;32.52;49.83;101470.37;1735247;80;21074;-82
2022/07/03 07:14:43;;;;;;;;;;;;;;;32.73;49.13;101478.69;1720923;81;20201;-82
2022/07/03 07:17:09;;;;;;;1.65;1.10;;;;;;;32.80;48.50;101470.41;1726062;81;20205;-82
2022/07/03 07:19:35;;;;;;;2.50;1.00;;;;;;;32.37;48.77;101470.98;1742190;81;21107;-82
2022/07/03 07:22:01;;;;;;;3.30;0.90;;;;;;;32.02;48.64;101466.25;1727548;81;21078;-82
2022/07/03 07:24:29;;;;;;;2.35;1.02;;;;;;;32.06;48.23;101466.31;1726658;81;21043;-82
2022/07/03 07:26:56;;;;;;;2.25;0.80;;;;;;;32.19;47.45;101469.04;1744139;81;21020;-82
2022/07/03 07:29:22;;;;;;;4.40;1.30;;;;;;;32.15;46.87;101468.98;1739403;81;21035;-82
2022/07/03 07:31:48;;;;;;;1.87;1.20;;;;;;;31.88;46.50;101462.18;1744292;82;21019;-82
2022/07/03 07:34:14;;;;;;;3.17;1.00;;;;;;;31.82;46.33;101463.59;1722759;81;21564;-82
2022/07/03 07:36:40;;;;;;;3.80;1.15;;;;;;;31.76;45.88;101457.95;1723148;81;21443;-82
2022/07/03 07:39:06;;;;;;;2.65;0.82;;;;;;;31.47;45.82;101460.13;1715464;82;21038;-82
2022/07/03 07:41:33;;;;;;;4.62;1.22;;;;;;;31.03;45.61;101460.11;1737827;80;21016;-82
2022/07/03 07:44:00;;;;;;;1.45;1.00;;;;;;;30.56;45.40;101460.27;1750992;80;21072;-82
2022/07/03 07:46:26;;;;;;;1.92;1.25;;;;;;;30.11;45.27;101462.42;1723280;81;21010;-82
2022/07/03 07:48:52;;;;;;;2.25;1.10;;;;;;;29.63;45.04;101469.55;1715179;83;21014;-82
2022/07/03 07:51:18;;;;;;;6.35;1.27;;;;;;;29.05;44.80;101458.78;1717607;81;20856;-81
2022/07/03 07:53:45;;;;;;;3.70;1.00;;;;;;;28.62;44.92;101459.00;1715313;83;21090;-82
2022/07/03 07:56:14;;;;;;;2.02;1.25;;;;;;;28.77;44.99;101452.11;1732999;81;21020;-82
2022/07/03 07:58:40;;;;;;;4.08;1.20;;;;;;;29.12;44.58;101450.14;1744955;81;20924;-82
2022/07/03 08:06:41;;;;;;;4.08;1.15;;;;;;;29.02;43.93;101449.70;1720261;82;20991;-81
2022/07/03 08:09:08;;;;;;;2.70;1.10;;;;;;;28.65;43.89;101448.11;1744906;81;21020;-81
2022/07/03 08:11:34;;;;;;;2.00;1.27;;;;;;;28.36;43.79;101444.25;1756527;80;21782;-81
2022/07/03 08:14:00;;;;;;;3.77;1.00;;;;;;;28.16;43.97;101445.75;1721775;80;21439;-81
2022/07/03 08:16:44;;;;;;;2.25;1.17;;;;;;;28.47;43.94;101442.93;1715364;83;22215;-81
2022/07/03 08:19:10;;;;;;;3.52;1.10;;;;;;;28.84;43.64;101444.03;1719747;82;21035;-81
2022/07/03 08:21:36;;;;;;;1.55;1.12;;;;;;;28.60;43.04;101446.30;1715254;82;20975;-81
2022/07/03 08:24:05;;;;;;;3.05;1.05;;;;;;;28.94;43.14;101444.50;1736241;81;20933;-81
2022/07/03 08:26:31;;;;;;;2.72;1.02;;;;;;;29.62;43.50;101433.20;1745061;81;21393;-81
2022/07/03 08:28:57;;;;;;;1.82;1.15;;;;;;;30.35;43.36;101428.76;1745264;81;20983;-82
2022/07/03 08:31:25;;;;;;;5.95;1.35;;;;;;;30.77;42.93;101437.52;1743785;81;21437;-82
2022/07/03 08:33:51;;;;;;;2.77;1.12;;;;;;;30.56;42.69;101438.91;1729692;81;21075;-81
2022/07/03 08:36:17;;;;;;;1.53;1.30;;;;;;;30.17;42.46;101432.03;1715487;83;20876;-81
2022/07/03 08:38:47;;;;;;;3.22;1.07;;;;;;;29.83;42.43;101433.19;1689079;83;21425;-81
2022/07/03 08:41:14;;;;;;;4.10;1.22;;;;;;;30.09;42.59;101433.20;1737503;80;20945;-81
2022/07/03 08:43:42;;;;;;;3.95;1.10;;;;;;;30.43;42.16;101431.13;1749864;80;20964;-81
2022/07/03 08:46:11;;;;;;;1.10;0.98;;;;;;;30.63;41.99;101427.23;1713802;81;20980;-81
2022/07/03 08:48:38;;;;;;;1.82;1.00;;;;;;;30.84;41.75;101423.98;1697677;83;21011;-81
2022/07/03 08:51:11;;;;;;;3.00;1.05;;;;;;;30.77;41.38;101421.50;1697160;84;20917;-81
2022/07/03 08:53:39;;;;;;;2.85;1.25;;;;;;;30.27;41.38;101424.08;1700698;83;21083;-81
2022/07/03 08:56:08;;;;;;;2.40;0.88;;;;;;;29.96;41.46;101424.52;1697588;84;21012;-81
2022/07/03 08:58:35;;;;;;;4.08;1.32;;;;;;;29.60;41.25;101425.81;1697080;83;21063;-81
2022/07/03 09:01:01;;;;;;;2.65;0.95;;;;;;;29.08;41.17;101426.57;1698134;83;21563;-81
2022/07/03 09:03:28;;;;;;;;;;;;;;;28.63;40.80;101422.59;1703147;82;21308;-81
2022/07/03 09:05:56;;;;;;;1.45;0.70;;;;;;;28.14;41.14;101421.08;1697512;84;20133;-81
2022/07/03 09:08:23;;;;;;;1.47;1.05;;;;;;;27.86;41.11;101417.53;1697622;84;21027;-81
2022/07/03 09:10:49;;;;;;;2.95;0.95;;;;;;;27.62;40.96;101417.09;1690337;81;20972;-81
2022/07/03 09:13:16;;;;;;;1.80;0.97;;;;;;;27.28;40.71;101413.90;1699300;80;20877;-81
2022/07/03 09:15:44;;;;;;;4.75;0.90;;;;;;;27.13;40.94;101407.89;1705936;82;21051;-81
2022/07/03 09:18:10;;;;;;;1.57;0.80;;;;;;;27.07;40.91;101394.22;1697534;83;21532;-81
2022/07/03 09:20:39;;;;;;;3.85;1.10;;;;;;;27.14;40.86;101400.78;1697697;83;20964;-81
2022/07/03 09:23:19;;;;;;;2.58;1.00;;;;;;;27.14;40.75;101398.97;1709905;83;21035;-81
2022/07/03 09:25:59;;;;;;;2.40;1.30;;;;;;;27.12;40.55;101399.56;1697988;83;21532;-81
2022/07/03 09:28:51;;;;;;;2.05;1.10;;;;;;;27.08;40.66;101393.26;1697269;83;21039;-81
2022/07/03 09:31:22;;;;;;;2.45;0.90;;;;;;;27.00;40.69;101396.50;1713584;83;21271;-80
2022/07/03 09:34:01;;;;;;;1.22;0.80;;;;;;;26.87;40.77;101391.67;1726406;83;21501;-80
2022/07/03 09:36:43;;;;;;;5.83;1.20;;;;;;;26.70;40.71;101388.90;1703801;83;21390;-80
2022/07/03 09:39:31;;;;;;;4.08;1.17;;;;;;;26.57;40.80;101397.35;1698922;84;21785;-80
2022/07/03 09:42:11;;;;;;;1.75;0.90;;;;;;;26.50;40.92;101393.47;1731408;81;21470;-80
2022/07/03 09:44:42;;;;;;;1.85;0.95;;;;;;;26.38;40.84;101386.73;1720547;83;20910;-80
2022/07/03 09:47:15;;;;;;;3.47;1.02;;;;;;;26.34;40.96;101385.73;1709093;83;21406;-80
2022/07/03 09:49:51;;;;;;;3.00;1.10;;;;;;;26.34;41.06;101387.91;1728339;82;20909;-81
2022/07/03 09:52:41;;;;;;;1.52;1.02;;;;;;;26.33;40.99;101379.58;1709673;82;21293;-80
2022/07/03 09:55:15;;;;;;;3.05;1.45;;;;;;;26.19;40.88;101377.48;1698876;83;21765;-80
2022/07/03 09:57:53;;;;;;;3.72;1.10;;;;;;;25.93;40.92;101377.50;1699210;83;21287;-80
2022/07/03 10:00:21;;;;;;;;;;;;;;;25.79;41.01;101368.31;1689630;83;21616;-80
2022/07/03 10:03:09;;;;;;;1.20;1.00;;;;;;;25.84;41.61;101370.65;1701487;82;20444;-80
2022/07/03 10:05:40;;;;;;;;;;;;;;;25.94;41.16;101370.40;1710931;83;21418;-80
2022/07/03 10:08:12;;;;;;;2.15;1.30;;;;;;;26.03;41.43;101364.44;1701100;83;20414;-80
2022/07/03 10:10:43;;;;;;;1.40;1.00;;;;;;;26.04;41.22;101365.66;1698690;83;22251;-80
2022/07/03 10:13:10;;;;;;;3.05;1.30;;;;;;;26.07;41.26;101361.95;1697723;83;21083;-80
2022/07/03 10:15:38;;;;;;;4.28;1.20;;;;;;;26.05;41.21;101365.17;1719565;82;21508;-80
2022/07/03 10:18:09;;;;;;;1.30;1.10;;;;;;;26.04;41.40;101357.70;1726726;82;21446;-80
2022/07/03 10:20:47;;;;;;;3.95;1.25;;;;;;;26.14;41.51;101358.39;1712676;82;22129;-80
2022/07/03 10:23:22;;;;;;;2.92;1.02;;;;;;;26.15;41.35;101354.79;1727545;83;21520;-80
2022/07/03 10:25:49;;;;;;;1.17;0.80;;;;;;;26.16;41.42;101352.03;1724800;82;21504;-81
2022/07/03 10:28:17;;;;;;;2.12;1.02;;;;;;;26.21;41.54;101347.73;1708578;83;21650;-81
2022/07/03 10:30:46;;;;;;;2.98;0.90;;;;;;;26.22;41.40;101346.78;1704222;82;21422;-81
2022/07/03 10:33:12;;;;;;;2.72;1.10;;;;;;;26.20;41.52;101345.56;1697972;83;21531;-81
2022/07/03 10:35:42;;;;;;;0.80;0.80;;;;;;;26.20;41.55;101342.91;1697598;84;21441;-82
2022/07/03 10:38:32;;;;;;;3.92;1.25;;;;;;;26.22;41.53;101342.80;1721616;82;21605;-82
2022/07/03 10:47:44;;;;;;;3.67;1.15;;;;;;;26.19;41.66;101329.28;1732032;80;21391;-82
2022/07/03 10:50:22;;;;;;;3.85;1.00;;;;;;;26.19;42.00;101327.11;1684679;82;21004;-82
2022/07/03 10:52:50;;;;;;;5.12;1.17;;;;;;;26.24;41.74;101322.33;1734110;82;21491;-82
2022/07/03 10:55:17;;;;;;;2.20;1.00;;;;;;;26.24;41.73;101316.55;1745238;82;21405;-82
2022/07/03 10:58:10;;;;;;;1.57;0.90;;;;;;;26.32;41.74;101317.38;1746777;81;21374;-82
2022/07/03 11:00:54;;;;;;;3.75;1.02;;;;;;;26.37;41.65;101314.77;1719285;82;21447;-82
2022/07/03 11:03:56;;;;;;;;;;;;;;;26.26;41.36;101311.98;1719307;83;21416;-82
2022/07/03 11:06:51;;;;;;;4.00;1.67;;;;;;;26.16;41.37;101301.66;1721551;81;20454;-82
2022/07/03 11:09:16;;;;;;;1.82;0.93;;;;;;;26.17;41.59;101303.36;1705801;82;20873;-82
2022/07/03 11:11:55;;;;;;;4.67;1.10;;;;;;;26.36;41.63;101306.44;1749536;80;21402;-82
2022/07/03 11:14:27;;;;;;;7.08;1.10;;;;;;;26.43;41.37;101296.24;1777291;80;20858;-82
2022/07/03 11:17:19;;;;;;;1.45;0.90;;;;;;;26.47;41.45;101295.55;1721237;80;20958;-82
2022/07/03 11:23:11;;;;;;;2.15;1.02;;;;;;;26.58;41.60;101295.59;1717359;82;20916;-82
2022/07/03 11:25:45;;;;;;;5.12;1.00;;;;;;;26.62;41.63;101282.47;1683588;83;20904;-82
2022/07/03 11:28:36;;;;;;;1.98;1.02;;;;;;;26.65;41.60;101279.59;1716634;83;20912;-82
2022/07/03 11:31:14;;;;;;;2.52;1.10;;;;;;;26.62;41.51;101274.52;1735939;82;20841;-82
2022/07/03 11:33:57;;;;;;;3.40;1.45;;;;;;;26.53;41.51;101267.22;1725943;81;21380;-82
2022/07/03 11:36:30;;;;;;;4.22;1.25;;;;;;;26.52;41.59;101269.50;1716840;82;20928;-82
2022/07/03 11:39:02;;;;;;;1.98;1.30;;;;;;;26.57;41.56;101257.61;1716655;83;20920;-82
2022/07/03 11:41:38;;;;;;;1.98;1.00;;;;;;;26.55;41.46;101254.22;1743937;80;20878;-82
2022/07/03 11:44:07;;;;;;;2.72;1.22;;;;;;;26.41;41.25;101258.38;1739110;81;20868;-82
2022/07/03 11:46:39;;;;;;;2.05;1.12;;;;;;;26.23;41.18;101257.85;1717726;82;20916;-82
2022/07/03 11:49:21;;;;;;;1.62;1.10;;;;;;;26.22;41.40;101257.48;1724094;81;20922;-82
2022/07/03 11:52:04;;;;;;;3.08;0.98;;;;;;;26.36;41.45;101265.34;1744122;81;20961;-82
2022/07/03 11:54:52;;;;;;;3.37;0.88;;;;;;;26.49;41.25;101252.52;1735657;82;20952;-82
2022/07/03 11:57:25;;;;;;;3.45;1.40;;;;;;;26.59;41.30;101250.37;1745451;81;21081;-82
2022/07/03 11:59:56;;;;;;;2.22;1.15;;;;;;;26.69;41.23;101261.17;1731808;81;21023;-82
2022/07/03 12:02:22;;;;;;;2.75;0.80;;;;;;;26.70;41.03;101257.55;1716212;83;20947;-82
2022/07/03 12:04:49;;;;;;;4.17;1.12;;;;;;;26.74;41.12;101251.55;1715277;83;21041;-82
2022/07/03 12:07:15;;;;;;;1.32;0.88;;;;;;;26.79;41.10;101250.25;1721527;82;21043;-82